Terminal Aerodrome Forecast
Issued by NWS

Home | Current Version | Previous Version | Text Only | Print | Product List | Glossary On
Versions: 1 2 3 4 5 6 7 8 9 10 11 12 13
000
FTUS45 KTFX 232300 RRA
TAFLWT
TAF
KLWT 232343Z 2400/2424 VRB05KT P6SM SCT150
     FM240300 VRB06KT P6SM VCSH SCT080 BKN150
     FM240500 14006KT P6SM SCT120 BKN150=

USA.gov is the U.S. government's official web portal to all federal, state and local government web resources and services.